sensor_id;sensor_type;location;lat;lon;timestamp;temperature;humidity
78536;SHT31;67829;51.968;5.684;2023-05-10T00:00:50;16.8;72.1
78536;SHT31;67829;51.968;5.684;2023-05-10T00:03:18;16.8;72.2
78536;SHT31;67829;51.968;5.684;2023-05-10T00:05:47;16.8;72.3
78536;SHT31;67829;51.968;5.684;2023-05-10T00:08:15;16.8;72.2
78536;SHT31;67829;51.968;5.684;2023-05-10T00:10:44;16.8;72.3
78536;SHT31;67829;51.968;5.684;2023-05-10T00:13:13;16.8;72.3
78536;SHT31;67829;51.968;5.684;2023-05-10T00:15:42;16.8;72.2
78536;SHT31;67829;51.968;5.684;2023-05-10T00:18:12;16.8;72.2
78536;SHT31;67829;51.968;5.684;2023-05-10T00:20:41;16.8;72.2
78536;SHT31;67829;51.968;5.684;2023-05-10T00:23:11;16.8;72.3
78536;SHT31;67829;51.968;5.684;2023-05-10T00:25:40;16.8;72.4
78536;SHT31;67829;51.968;5.684;2023-05-10T00:28:09;16.8;72.4
78536;SHT31;67829;51.968;5.684;2023-05-10T00:30:37;16.8;72.4
78536;SHT31;67829;51.968;5.684;2023-05-10T00:33:06;16.8;72.4
78536;SHT31;67829;51.968;5.684;2023-05-10T00:35:34;16.8;72.4
78536;SHT31;67829;51.968;5.684;2023-05-10T00:38:06;16.8;72.3
78536;SHT31;67829;51.968;5.684;2023-05-10T00:40:35;16.8;72.3
78536;SHT31;67829;51.968;5.684;2023-05-10T00:43:04;16.8;72.3
78536;SHT31;67829;51.968;5.684;2023-05-10T00:45:33;16.8;72.4
78536;SHT31;67829;51.968;5.684;2023-05-10T00:48:03;16.7;72.6
78536;SHT31;67829;51.968;5.684;2023-05-10T00:50:33;16.7;72.7
78536;SHT31;67829;51.968;5.684;2023-05-10T00:53:02;16.7;72.9
78536;SHT31;67829;51.968;5.684;2023-05-10T00:55:33;16.7;73.0
78536;SHT31;67829;51.968;5.684;2023-05-10T00:58:04;16.7;73.2
78536;SHT31;67829;51.968;5.684;2023-05-10T01:00:35;16.7;73.4
78536;SHT31;67829;51.968;5.684;2023-05-10T01:03:05;16.7;73.3
78536;SHT31;67829;51.968;5.684;2023-05-10T01:05:33;16.7;73.4
78536;SHT31;67829;51.968;5.684;2023-05-10T01:08:02;16.8;73.5
78536;SHT31;67829;51.968;5.684;2023-05-10T01:10:31;16.8;73.5
78536;SHT31;67829;51.968;5.684;2023-05-10T01:13:02;16.8;73.5
78536;SHT31;67829;51.968;5.684;2023-05-10T01:15:31;16.8;73.5
78536;SHT31;67829;51.968;5.684;2023-05-10T01:18:00;16.8;73.4
78536;SHT31;67829;51.968;5.684;2023-05-10T01:20:38;16.8;73.4
78536;SHT31;67829;51.968;5.684;2023-05-10T01:23:34;16.8;73.5
78536;SHT31;67829;51.968;5.684;2023-05-10T01:28:20;16.8;73.5
78536;SHT31;67829;51.968;5.684;2023-05-10T01:31:10;16.8;73.4
78536;SHT31;67829;51.968;5.684;2023-05-10T01:33:47;16.8;73.4
78536;SHT31;67829;51.968;5.684;2023-05-10T01:36:26;16.8;73.2
78536;SHT31;67829;51.968;5.684;2023-05-10T01:39:02;16.7;73.2
78536;SHT31;67829;51.968;5.684;2023-05-10T01:41:42;16.7;73.3
78536;SHT31;67829;51.968;5.684;2023-05-10T01:44:17;16.7;73.4
78536;SHT31;67829;51.968;5.684;2023-05-10T01:46:56;16.7;73.6
78536;SHT31;67829;51.968;5.684;2023-05-10T01:49:31;16.7;73.6
78536;SHT31;67829;51.968;5.684;2023-05-10T01:52:08;16.7;73.5
78536;SHT31;67829;51.968;5.684;2023-05-10T01:54:40;16.7;73.5
78536;SHT31;67829;51.968;5.684;2023-05-10T01:57:11;16.7;73.4
78536;SHT31;67829;51.968;5.684;2023-05-10T01:59:43;16.7;73.4
78536;SHT31;67829;51.968;5.684;2023-05-10T02:02:15;16.7;73.2
78536;SHT31;67829;51.968;5.684;2023-05-10T02:04:45;16.7;73.3
78536;SHT31;67829;51.968;5.684;2023-05-10T02:07:15;16.7;73.4
78536;SHT31;67829;51.968;5.684;2023-05-10T02:09:46;16.7;73.2
78536;SHT31;67829;51.968;5.684;2023-05-10T02:12:16;16.7;73.2
78536;SHT31;67829;51.968;5.684;2023-05-10T02:14:47;16.7;73.3
78536;SHT31;67829;51.968;5.684;2023-05-10T02:17:18;16.7;73.2
78536;SHT31;67829;51.968;5.684;2023-05-10T02:19:48;16.7;73.2
78536;SHT31;67829;51.968;5.684;2023-05-10T02:22:19;16.6;73.1
78536;SHT31;67829;51.968;5.684;2023-05-10T02:24:49;16.6;73.1
78536;SHT31;67829;51.968;5.684;2023-05-10T02:27:20;16.6;73.1
78536;SHT31;67829;51.968;5.684;2023-05-10T02:29:50;16.6;73.1
78536;SHT31;67829;51.968;5.684;2023-05-10T02:32:19;16.6;73.1
78536;SHT31;67829;51.968;5.684;2023-05-10T02:34:51;16.6;73.1
78536;SHT31;67829;51.968;5.684;2023-05-10T02:37:22;16.6;73.3
78536;SHT31;67829;51.968;5.684;2023-05-10T02:39:53;16.6;73.2
78536;SHT31;67829;51.968;5.684;2023-05-10T02:42:26;16.6;73.1
78536;SHT31;67829;51.968;5.684;2023-05-10T02:44:59;16.6;72.5
78536;SHT31;67829;51.968;5.684;2023-05-10T02:47:29;16.6;72.3
78536;SHT31;67829;51.968;5.684;2023-05-10T02:49:58;16.6;72.3
78536;SHT31;67829;51.968;5.684;2023-05-10T02:52:30;16.6;72.3
78536;SHT31;67829;51.968;5.684;2023-05-10T02:55:08;16.6;72.2
78536;SHT31;67829;51.968;5.684;2023-05-10T02:57:43;16.6;72.2
78536;SHT31;67829;51.968;5.684;2023-05-10T03:00:13;16.6;71.1
78536;SHT31;67829;51.968;5.684;2023-05-10T03:02:42;16.5;71.1
78536;SHT31;67829;51.968;5.684;2023-05-10T03:05:10;16.5;71.4
78536;SHT31;67829;51.968;5.684;2023-05-10T03:07:39;16.5;71.5
78536;SHT31;67829;51.968;5.684;2023-05-10T03:10:09;16.5;71.7
78536;SHT31;67829;51.968;5.684;2023-05-10T03:12:57;16.5;72.0
78536;SHT31;67829;51.968;5.684;2023-05-10T03:15:53;16.5;72.1
78536;SHT31;67829;51.968;5.684;2023-05-10T03:18:16;16.5;72.0
78536;SHT31;67829;51.968;5.684;2023-05-10T03:20:50;16.5;72.0
78536;SHT31;67829;51.968;5.684;2023-05-10T03:23:27;16.4;72.1
78536;SHT31;67829;51.968;5.684;2023-05-10T03:25:59;16.4;72.3
78536;SHT31;67829;51.968;5.684;2023-05-10T03:28:30;16.4;72.3
78536;SHT31;67829;51.968;5.684;2023-05-10T03:31:00;16.4;72.1
78536;SHT31;67829;51.968;5.684;2023-05-10T03:33:30;16.4;71.9
78536;SHT31;67829;51.968;5.684;2023-05-10T03:35:58;16.4;71.7
78536;SHT31;67829;51.968;5.684;2023-05-10T03:38:27;16.4;71.6
78536;SHT31;67829;51.968;5.684;2023-05-10T03:40:56;16.4;72.0
78536;SHT31;67829;51.968;5.684;2023-05-10T03:43:24;16.4;72.1
78536;SHT31;67829;51.968;5.684;2023-05-10T03:45:53;16.4;71.8
78536;SHT31;67829;51.968;5.684;2023-05-10T03:48:21;16.4;71.8
78536;SHT31;67829;51.968;5.684;2023-05-10T03:50:50;16.3;71.8
78536;SHT31;67829;51.968;5.684;2023-05-10T03:53:18;16.3;71.9
78536;SHT31;67829;51.968;5.684;2023-05-10T03:55:47;16.3;71.8
78536;SHT31;67829;51.968;5.684;2023-05-10T03:58:15;16.3;71.9
78536;SHT31;67829;51.968;5.684;2023-05-10T04:00:44;16.3;71.5
78536;SHT31;67829;51.968;5.684;2023-05-10T04:03:14;16.3;71.7
78536;SHT31;67829;51.968;5.684;2023-05-10T04:05:43;16.2;72.1
78536;SHT31;67829;51.968;5.684;2023-05-10T04:08:13;16.2;71.8
78536;SHT31;67829;51.968;5.684;2023-05-10T04:10:43;16.2;72.2
78536;SHT31;67829;51.968;5.684;2023-05-10T04:13:12;16.2;72.2
78536;SHT31;67829;51.968;5.684;2023-05-10T04:15:40;16.2;72.3
78536;SHT31;67829;51.968;5.684;2023-05-10T04:18:09;16.2;72.5
78536;SHT31;67829;51.968;5.684;2023-05-10T04:20:38;16.2;72.2
78536;SHT31;67829;51.968;5.684;2023-05-10T04:23:06;16.1;72.3
78536;SHT31;67829;51.968;5.684;2023-05-10T04:25:35;16.1;72.6
78536;SHT31;67829;51.968;5.684;2023-05-10T04:28:04;16.1;72.2
78536;SHT31;67829;51.968;5.684;2023-05-10T04:30:32;16.1;72.5
78536;SHT31;67829;51.968;5.684;2023-05-10T04:33:01;16.1;72.1
78536;SHT31;67829;51.968;5.684;2023-05-10T04:35:30;16.1;72.2
78536;SHT31;67829;51.968;5.684;2023-05-10T04:37:58;16.1;72.3
78536;SHT31;67829;51.968;5.684;2023-05-10T04:40:27;16.1;72.1
78536;SHT31;67829;51.968;5.684;2023-05-10T04:42:55;16.1;72.5
78536;SHT31;67829;51.968;5.684;2023-05-10T04:45:24;16.1;72.3
78536;SHT31;67829;51.968;5.684;2023-05-10T04:47:52;16.1;72.3
78536;SHT31;67829;51.968;5.684;2023-05-10T04:50:21;16.1;72.2
78536;SHT31;67829;51.968;5.684;2023-05-10T04:52:49;16.2;72.5
78536;SHT31;67829;51.968;5.684;2023-05-10T04:55:18;16.2;72.7
78536;SHT31;67829;51.968;5.684;2023-05-10T04:57:47;16.2;72.8
78536;SHT31;67829;51.968;5.684;2023-05-10T05:00:16;16.2;72.8
78536;SHT31;67829;51.968;5.684;2023-05-10T05:02:45;16.2;72.8
78536;SHT31;67829;51.968;5.684;2023-05-10T05:05:13;16.2;72.5
78536;SHT31;67829;51.968;5.684;2023-05-10T05:07:42;16.3;72.8
78536;SHT31;67829;51.968;5.684;2023-05-10T05:10:10;16.3;72.4
78536;SHT31;67829;51.968;5.684;2023-05-10T05:12:41;16.3;72.3
78536;SHT31;67829;51.968;5.684;2023-05-10T05:15:10;16.3;72.5
78536;SHT31;67829;51.968;5.684;2023-05-10T05:17:41;16.3;72.8
78536;SHT31;67829;51.968;5.684;2023-05-10T05:20:10;16.3;72.4
78536;SHT31;67829;51.968;5.684;2023-05-10T05:22:39;16.4;72.3
78536;SHT31;67829;51.968;5.684;2023-05-10T05:25:08;16.4;72.4
78536;SHT31;67829;51.968;5.684;2023-05-10T05:27:40;16.4;72.3
78536;SHT31;67829;51.968;5.684;2023-05-10T05:30:11;16.4;72.3
78536;SHT31;67829;51.968;5.684;2023-05-10T05:32:40;16.4;72.2
78536;SHT31;67829;51.968;5.684;2023-05-10T05:35:09;16.4;72.4
78536;SHT31;67829;51.968;5.684;2023-05-10T05:37:37;16.4;72.5
78536;SHT31;67829;51.968;5.684;2023-05-10T05:40:07;16.4;72.2
78536;SHT31;67829;51.968;5.684;2023-05-10T05:42:36;16.4;72.5
78536;SHT31;67829;51.968;5.684;2023-05-10T05:45:05;16.4;72.4
78536;SHT31;67829;51.968;5.684;2023-05-10T05:47:35;16.4;72.7
78536;SHT31;67829;51.968;5.684;2023-05-10T05:50:04;16.4;72.6
78536;SHT31;67829;51.968;5.684;2023-05-10T05:52:33;16.4;72.7
78536;SHT31;67829;51.968;5.684;2023-05-10T05:55:02;16.4;72.9
78536;SHT31;67829;51.968;5.684;2023-05-10T05:57:31;16.4;72.8
78536;SHT31;67829;51.968;5.684;2023-05-10T06:00:00;16.4;72.8
78536;SHT31;67829;51.968;5.684;2023-05-10T06:02:30;16.4;72.2
78536;SHT31;67829;51.968;5.684;2023-05-10T06:04:59;16.4;72.5
78536;SHT31;67829;51.968;5.684;2023-05-10T06:07:27;16.4;72.5
78536;SHT31;67829;51.968;5.684;2023-05-10T06:09:56;16.5;72.8
78536;SHT31;67829;51.968;5.684;2023-05-10T06:12:25;16.5;72.5
78536;SHT31;67829;51.968;5.684;2023-05-10T06:14:54;16.5;72.5
78536;SHT31;67829;51.968;5.684;2023-05-10T06:17:22;16.4;72.9
78536;SHT31;67829;51.968;5.684;2023-05-10T06:19:51;16.4;72.9
78536;SHT31;67829;51.968;5.684;2023-05-10T06:22:20;16.4;73.0
78536;SHT31;67829;51.968;5.684;2023-05-10T06:24:49;16.5;73.4
78536;SHT31;67829;51.968;5.684;2023-05-10T06:27:17;16.5;73.7
78536;SHT31;67829;51.968;5.684;2023-05-10T06:29:46;16.5;72.9
78536;SHT31;67829;51.968;5.684;2023-05-10T06:32:15;16.5;72.6
78536;SHT31;67829;51.968;5.684;2023-05-10T06:34:43;16.5;73.2
78536;SHT31;67829;51.968;5.684;2023-05-10T06:37:14;16.5;73.2
78536;SHT31;67829;51.968;5.684;2023-05-10T06:39:43;16.5;72.2
78536;SHT31;67829;51.968;5.684;2023-05-10T06:42:11;16.5;72.2
78536;SHT31;67829;51.968;5.684;2023-05-10T06:44:40;16.5;72.3
78536;SHT31;67829;51.968;5.684;2023-05-10T06:47:11;16.5;72.3
78536;SHT31;67829;51.968;5.684;2023-05-10T06:49:40;16.5;72.6
78536;SHT31;67829;51.968;5.684;2023-05-10T06:52:08;16.5;72.8
78536;SHT31;67829;51.968;5.684;2023-05-10T06:54:37;16.5;73.0
78536;SHT31;67829;51.968;5.684;2023-05-10T06:57:05;16.5;72.7
78536;SHT31;67829;51.968;5.684;2023-05-10T06:59:34;16.5;72.3
78536;SHT31;67829;51.968;5.684;2023-05-10T07:02:02;16.5;72.5
78536;SHT31;67829;51.968;5.684;2023-05-10T07:04:33;16.5;72.2
78536;SHT31;67829;51.968;5.684;2023-05-10T07:07:02;16.5;72.2
78536;SHT31;67829;51.968;5.684;2023-05-10T07:09:30;16.5;71.9
78536;SHT31;67829;51.968;5.684;2023-05-10T07:11:59;16.5;72.5
78536;SHT31;67829;51.968;5.684;2023-05-10T07:14:30;16.4;72.9
78536;SHT31;67829;51.968;5.684;2023-05-10T07:16:58;16.4;73.1
78536;SHT31;67829;51.968;5.684;2023-05-10T07:19:27;16.4;73.6
78536;SHT31;67829;51.968;5.684;2023-05-10T07:21:56;16.5;73.7
78536;SHT31;67829;51.968;5.684;2023-05-10T07:24:24;16.5;72.7
78536;SHT31;67829;51.968;5.684;2023-05-10T07:26:53;16.5;72.3
78536;SHT31;67829;51.968;5.684;2023-05-10T07:29:22;16.5;72.5
78536;SHT31;67829;51.968;5.684;2023-05-10T07:31:50;16.5;72.6
78536;SHT31;67829;51.968;5.684;2023-05-10T07:34:21;16.5;71.9
78536;SHT31;67829;51.968;5.684;2023-05-10T07:36:50;16.6;71.8
78536;SHT31;67829;51.968;5.684;2023-05-10T07:39:19;16.6;72.4
78536;SHT31;67829;51.968;5.684;2023-05-10T07:41:48;16.6;72.9
78536;SHT31;67829;51.968;5.684;2023-05-10T07:44:17;16.7;72.7
78536;SHT31;67829;51.968;5.684;2023-05-10T07:46:46;16.7;72.2
78536;SHT31;67829;51.968;5.684;2023-05-10T07:49:15;16.7;72.4
78536;SHT31;67829;51.968;5.684;2023-05-10T07:51:44;16.8;72.1
78536;SHT31;67829;51.968;5.684;2023-05-10T07:54:13;16.8;71.8
78536;SHT31;67829;51.968;5.684;2023-05-10T07:56:44;16.9;71.1
78536;SHT31;67829;51.968;5.684;2023-05-10T07:59:15;16.9;69.7
78536;SHT31;67829;51.968;5.684;2023-05-10T08:01:45;16.9;69.2
78536;SHT31;67829;51.968;5.684;2023-05-10T08:04:13;16.9;69.4
78536;SHT31;67829;51.968;5.684;2023-05-10T08:06:44;16.9;68.5
78536;SHT31;67829;51.968;5.684;2023-05-10T08:09:15;16.9;69.3
78536;SHT31;67829;51.968;5.684;2023-05-10T08:11:44;16.9;67.4
78536;SHT31;67829;51.968;5.684;2023-05-10T08:14:14;16.9;67.9
78536;SHT31;67829;51.968;5.684;2023-05-10T08:16:43;16.9;68.6
78536;SHT31;67829;51.968;5.684;2023-05-10T08:19:11;16.9;68.2
78536;SHT31;67829;51.968;5.684;2023-05-10T08:21:40;16.9;68.8
78536;SHT31;67829;51.968;5.684;2023-05-10T08:24:08;16.9;69.0
78536;SHT31;67829;51.968;5.684;2023-05-10T08:26:37;16.9;68.8
78536;SHT31;67829;51.968;5.684;2023-05-10T08:29:06;16.9;69.6
78536;SHT31;67829;51.968;5.684;2023-05-10T08:31:35;16.9;66.8
78536;SHT31;67829;51.968;5.684;2023-05-10T08:34:03;17.0;67.0
78536;SHT31;67829;51.968;5.684;2023-05-10T08:36:32;17.0;66.6
78536;SHT31;67829;51.968;5.684;2023-05-10T08:39:01;17.1;67.7
78536;SHT31;67829;51.968;5.684;2023-05-10T08:41:30;17.1;66.8
78536;SHT31;67829;51.968;5.684;2023-05-10T08:44:03;17.2;67.2
78536;SHT31;67829;51.968;5.684;2023-05-10T08:46:34;17.2;66.8
78536;SHT31;67829;51.968;5.684;2023-05-10T08:49:06;17.3;66.6
78536;SHT31;67829;51.968;5.684;2023-05-10T08:51:40;17.3;65.4
78536;SHT31;67829;51.968;5.684;2023-05-10T08:54:11;17.4;66.6
78536;SHT31;67829;51.968;5.684;2023-05-10T08:56:41;17.4;63.6
78536;SHT31;67829;51.968;5.684;2023-05-10T08:59:09;17.5;63.3
78536;SHT31;67829;51.968;5.684;2023-05-10T09:01:40;17.6;66.0
78536;SHT31;67829;51.968;5.684;2023-05-10T09:04:10;17.6;63.4
78536;SHT31;67829;51.968;5.684;2023-05-10T09:06:39;17.7;62.8
78536;SHT31;67829;51.968;5.684;2023-05-10T09:09:08;17.7;64.3
78536;SHT31;67829;51.968;5.684;2023-05-10T09:11:37;17.8;64.9
78536;SHT31;67829;51.968;5.684;2023-05-10T09:14:06;17.8;63.3
78536;SHT31;67829;51.968;5.684;2023-05-10T09:16:35;17.9;61.7
78536;SHT31;67829;51.968;5.684;2023-05-10T09:19:04;17.9;62.2
78536;SHT31;67829;51.968;5.684;2023-05-10T09:21:36;18.0;64.5
78536;SHT31;67829;51.968;5.684;2023-05-10T09:24:07;18.0;61.8
78536;SHT31;67829;51.968;5.684;2023-05-10T09:26:47;18.0;61.8
78536;SHT31;67829;51.968;5.684;2023-05-10T09:29:16;18.0;62.0
78536;SHT31;67829;51.968;5.684;2023-05-10T09:31:46;18.1;60.1
78536;SHT31;67829;51.968;5.684;2023-05-10T09:34:18;18.1;63.2
78536;SHT31;67829;51.968;5.684;2023-05-10T09:36:54;18.1;64.1
78536;SHT31;67829;51.968;5.684;2023-05-10T09:39:32;18.1;63.5
78536;SHT31;67829;51.968;5.684;2023-05-10T09:42:03;18.1;62.9
78536;SHT31;67829;51.968;5.684;2023-05-10T09:44:33;18.2;62.5
78536;SHT31;67829;51.968;5.684;2023-05-10T09:47:03;18.2;62.0
78536;SHT31;67829;51.968;5.684;2023-05-10T09:49:32;18.2;60.2
78536;SHT31;67829;51.968;5.684;2023-05-10T09:52:03;18.2;61.4
78536;SHT31;67829;51.968;5.684;2023-05-10T09:54:33;18.3;61.0
78536;SHT31;67829;51.968;5.684;2023-05-10T09:57:02;18.3;60.6
78536;SHT31;67829;51.968;5.684;2023-05-10T09:59:33;18.3;62.0
78536;SHT31;67829;51.968;5.684;2023-05-10T10:02:02;18.3;62.5
78536;SHT31;67829;51.968;5.684;2023-05-10T10:04:31;18.3;60.5
78536;SHT31;67829;51.968;5.684;2023-05-10T10:07:01;18.4;62.2
78536;SHT31;67829;51.968;5.684;2023-05-10T10:09:31;18.4;61.7
78536;SHT31;67829;51.968;5.684;2023-05-10T10:12:01;18.4;61.0
78536;SHT31;67829;51.968;5.684;2023-05-10T10:14:30;18.4;62.0
78536;SHT31;67829;51.968;5.684;2023-05-10T10:17:00;18.4;61.7
78536;SHT31;67829;51.968;5.684;2023-05-10T10:19:30;18.4;60.0
78536;SHT31;67829;51.968;5.684;2023-05-10T10:22:01;18.4;61.5
78536;SHT31;67829;51.968;5.684;2023-05-10T10:24:30;18.5;62.9
78536;SHT31;67829;51.968;5.684;2023-05-10T10:27:07;18.5;61.2
78536;SHT31;67829;51.968;5.684;2023-05-10T10:29:47;18.5;60.8
78536;SHT31;67829;51.968;5.684;2023-05-10T10:32:27;18.6;60.6
78536;SHT31;67829;51.968;5.684;2023-05-10T10:34:59;18.7;60.0
78536;SHT31;67829;51.968;5.684;2023-05-10T10:37:43;18.7;61.5
78536;SHT31;67829;51.968;5.684;2023-05-10T10:40:26;18.8;60.6
78536;SHT31;67829;51.968;5.684;2023-05-10T10:42:55;18.8;61.6
78536;SHT31;67829;51.968;5.684;2023-05-10T10:45:25;18.9;63.1
78536;SHT31;67829;51.968;5.684;2023-05-10T10:48:22;19.0;62.4
78536;SHT31;67829;51.968;5.684;2023-05-10T10:50:57;19.0;62.3
78536;SHT31;67829;51.968;5.684;2023-05-10T10:53:28;19.1;60.2
78536;SHT31;67829;51.968;5.684;2023-05-10T10:56:05;19.1;57.8
78536;SHT31;67829;51.968;5.684;2023-05-10T10:58:36;19.1;58.9
78536;SHT31;67829;51.968;5.684;2023-05-10T11:01:14;19.1;60.2
78536;SHT31;67829;51.968;5.684;2023-05-10T11:06:35;19.1;58.3
78536;SHT31;67829;51.968;5.684;2023-05-10T11:09:07;19.1;59.1
78536;SHT31;67829;51.968;5.684;2023-05-10T11:11:50;19.1;58.7
78536;SHT31;67829;51.968;5.684;2023-05-10T11:14:21;19.1;59.4
78536;SHT31;67829;51.968;5.684;2023-05-10T11:16:51;19.1;59.2
78536;SHT31;67829;51.968;5.684;2023-05-10T11:19:19;19.1;59.3
78536;SHT31;67829;51.968;5.684;2023-05-10T11:21:50;19.1;58.7
78536;SHT31;67829;51.968;5.684;2023-05-10T11:24:22;19.1;59.7
78536;SHT31;67829;51.968;5.684;2023-05-10T11:26:55;19.1;59.3
78536;SHT31;67829;51.968;5.684;2023-05-10T11:29:24;19.1;58.9
78536;SHT31;67829;51.968;5.684;2023-05-10T11:31:57;19.1;58.2
78536;SHT31;67829;51.968;5.684;2023-05-10T11:34:27;19.2;58.8
78536;SHT31;67829;51.968;5.684;2023-05-10T11:36:58;19.2;58.9
78536;SHT31;67829;51.968;5.684;2023-05-10T11:39:31;19.2;58.5
78536;SHT31;67829;51.968;5.684;2023-05-10T11:42:00;19.2;58.6
78536;SHT31;67829;51.968;5.684;2023-05-10T11:44:31;19.3;58.0
78536;SHT31;67829;51.968;5.684;2023-05-10T11:47:01;19.3;57.5
78536;SHT31;67829;51.968;5.684;2023-05-10T11:49:30;19.3;57.5
78536;SHT31;67829;51.968;5.684;2023-05-10T11:52:06;19.4;57.7
78536;SHT31;67829;51.968;5.684;2023-05-10T11:54:35;19.4;58.2
78536;SHT31;67829;51.968;5.684;2023-05-10T11:57:04;19.5;57.0
78536;SHT31;67829;51.968;5.684;2023-05-10T11:59:34;19.5;57.9
78536;SHT31;67829;51.968;5.684;2023-05-10T12:02:03;19.6;58.1
78536;SHT31;67829;51.968;5.684;2023-05-10T12:04:32;19.7;58.3
78536;SHT31;67829;51.968;5.684;2023-05-10T12:07:01;19.8;56.0
78536;SHT31;67829;51.968;5.684;2023-05-10T12:09:30;19.8;55.4
78536;SHT31;67829;51.968;5.684;2023-05-10T12:11:59;19.8;59.0
78536;SHT31;67829;51.968;5.684;2023-05-10T12:14:28;19.9;58.5
78536;SHT31;67829;51.968;5.684;2023-05-10T12:16:59;19.9;57.6
78536;SHT31;67829;51.968;5.684;2023-05-10T12:19:28;20.0;58.4
78536;SHT31;67829;51.968;5.684;2023-05-10T12:21:56;20.1;58.7
78536;SHT31;67829;51.968;5.684;2023-05-10T12:24:27;20.1;55.4
78536;SHT31;67829;51.968;5.684;2023-05-10T12:26:56;20.2;54.5
78536;SHT31;67829;51.968;5.684;2023-05-10T12:29:24;20.2;58.1
78536;SHT31;67829;51.968;5.684;2023-05-10T12:31:56;20.3;56.7
78536;SHT31;67829;51.968;5.684;2023-05-10T12:34:29;20.4;58.4
78536;SHT31;67829;51.968;5.684;2023-05-10T12:36:59;20.5;56.5
78536;SHT31;67829;51.968;5.684;2023-05-10T12:39:41;20.5;57.0
78536;SHT31;67829;51.968;5.684;2023-05-10T12:42:10;20.6;55.7
78536;SHT31;67829;51.968;5.684;2023-05-10T12:44:39;20.7;53.8
78536;SHT31;67829;51.968;5.684;2023-05-10T12:47:08;20.7;54.5
78536;SHT31;67829;51.968;5.684;2023-05-10T12:49:37;20.8;54.2
78536;SHT31;67829;51.968;5.684;2023-05-10T12:52:07;20.8;55.8
78536;SHT31;67829;51.968;5.684;2023-05-10T12:54:36;20.8;56.9
78536;SHT31;67829;51.968;5.684;2023-05-10T12:57:04;20.8;54.7
78536;SHT31;67829;51.968;5.684;2023-05-10T12:59:33;20.9;53.7
78536;SHT31;67829;51.968;5.684;2023-05-10T13:02:01;20.9;54.7
78536;SHT31;67829;51.968;5.684;2023-05-10T13:04:30;20.9;56.1
78536;SHT31;67829;51.968;5.684;2023-05-10T13:06:58;20.9;56.0
78536;SHT31;67829;51.968;5.684;2023-05-10T13:09:27;20.8;56.8
78536;SHT31;67829;51.968;5.684;2023-05-10T13:11:56;20.8;57.2
78536;SHT31;67829;51.968;5.684;2023-05-10T13:14:25;20.7;56.6
78536;SHT31;67829;51.968;5.684;2023-05-10T13:16:54;20.6;55.8
78536;SHT31;67829;51.968;5.684;2023-05-10T13:19:23;20.5;57.2
78536;SHT31;67829;51.968;5.684;2023-05-10T13:21:52;20.4;56.4
78536;SHT31;67829;51.968;5.684;2023-05-10T13:24:20;20.3;56.8
78536;SHT31;67829;51.968;5.684;2023-05-10T13:26:49;20.2;57.4
78536;SHT31;67829;51.968;5.684;2023-05-10T13:29:17;20.1;58.7
78536;SHT31;67829;51.968;5.684;2023-05-10T13:31:47;20.0;57.4
78536;SHT31;67829;51.968;5.684;2023-05-10T13:34:16;19.9;58.0
78536;SHT31;67829;51.968;5.684;2023-05-10T13:36:47;19.9;59.1
78536;SHT31;67829;51.968;5.684;2023-05-10T13:39:15;19.8;59.5
78536;SHT31;67829;51.968;5.684;2023-05-10T13:41:44;19.7;60.3
78536;SHT31;67829;51.968;5.684;2023-05-10T13:44:14;19.6;61.4
78536;SHT31;67829;51.968;5.684;2023-05-10T13:46:43;19.6;62.2
78536;SHT31;67829;51.968;5.684;2023-05-10T13:49:13;19.5;62.2
78536;SHT31;67829;51.968;5.684;2023-05-10T13:51:43;19.5;63.1
78536;SHT31;67829;51.968;5.684;2023-05-10T13:54:12;19.4;62.1
78536;SHT31;67829;51.968;5.684;2023-05-10T13:56:42;19.4;62.9
78536;SHT31;67829;51.968;5.684;2023-05-10T13:59:11;19.3;63.1
78536;SHT31;67829;51.968;5.684;2023-05-10T14:01:40;19.3;63.9
78536;SHT31;67829;51.968;5.684;2023-05-10T14:04:10;19.3;62.1
78536;SHT31;67829;51.968;5.684;2023-05-10T14:06:39;19.2;61.9
78536;SHT31;67829;51.968;5.684;2023-05-10T14:09:08;19.2;62.7
78536;SHT31;67829;51.968;5.684;2023-05-10T14:11:37;19.1;62.0
78536;SHT31;67829;51.968;5.684;2023-05-10T14:14:08;19.1;62.4
78536;SHT31;67829;51.968;5.684;2023-05-10T14:16:37;19.0;62.8
78536;SHT31;67829;51.968;5.684;2023-05-10T14:19:05;19.0;62.9
78536;SHT31;67829;51.968;5.684;2023-05-10T14:21:34;18.9;63.0
78536;SHT31;67829;51.968;5.684;2023-05-10T14:24:03;18.9;63.7
78536;SHT31;67829;51.968;5.684;2023-05-10T14:26:35;18.8;64.1
78536;SHT31;67829;51.968;5.684;2023-05-10T14:29:03;18.8;64.3
78536;SHT31;67829;51.968;5.684;2023-05-10T14:31:32;18.8;63.7
78536;SHT31;67829;51.968;5.684;2023-05-10T14:34:01;18.7;65.2
78536;SHT31;67829;51.968;5.684;2023-05-10T14:36:30;18.7;63.6
78536;SHT31;67829;51.968;5.684;2023-05-10T14:38:58;18.7;65.0
78536;SHT31;67829;51.968;5.684;2023-05-10T14:41:27;18.7;65.3
78536;SHT31;67829;51.968;5.684;2023-05-10T14:43:56;18.7;65.1
78536;SHT31;67829;51.968;5.684;2023-05-10T14:46:25;18.7;63.5
78536;SHT31;67829;51.968;5.684;2023-05-10T14:48:54;18.7;63.7
78536;SHT31;67829;51.968;5.684;2023-05-10T14:51:22;18.7;64.3
78536;SHT31;67829;51.968;5.684;2023-05-10T14:53:51;18.8;64.0
78536;SHT31;67829;51.968;5.684;2023-05-10T14:56:19;18.8;64.6
78536;SHT31;67829;51.968;5.684;2023-05-10T14:58:49;18.8;63.9
78536;SHT31;67829;51.968;5.684;2023-05-10T15:01:18;18.9;63.9
78536;SHT31;67829;51.968;5.684;2023-05-10T15:03:47;18.9;62.8
78536;SHT31;67829;51.968;5.684;2023-05-10T15:06:16;18.9;61.8
78536;SHT31;67829;51.968;5.684;2023-05-10T15:08:47;19.0;61.1
78536;SHT31;67829;51.968;5.684;2023-05-10T15:11:15;19.0;62.5
78536;SHT31;67829;51.968;5.684;2023-05-10T15:13:44;19.0;63.7
78536;SHT31;67829;51.968;5.684;2023-05-10T15:16:12;19.1;62.9
78536;SHT31;67829;51.968;5.684;2023-05-10T15:18:41;19.1;62.1
78536;SHT31;67829;51.968;5.684;2023-05-10T15:21:10;19.1;62.4
78536;SHT31;67829;51.968;5.684;2023-05-10T15:23:39;19.1;63.3
78536;SHT31;67829;51.968;5.684;2023-05-10T15:26:07;19.2;61.8
78536;SHT31;67829;51.968;5.684;2023-05-10T15:28:37;19.2;62.2
78536;SHT31;67829;51.968;5.684;2023-05-10T15:31:06;19.2;62.9
78536;SHT31;67829;51.968;5.684;2023-05-10T15:33:36;19.3;63.7
78536;SHT31;67829;51.968;5.684;2023-05-10T15:36:05;19.3;62.8
78536;SHT31;67829;51.968;5.684;2023-05-10T15:38:34;19.4;62.5
78536;SHT31;67829;51.968;5.684;2023-05-10T15:41:03;19.5;60.5
78536;SHT31;67829;51.968;5.684;2023-05-10T15:43:32;19.7;61.6
78536;SHT31;67829;51.968;5.684;2023-05-10T15:46:00;19.9;61.5
78536;SHT31;67829;51.968;5.684;2023-05-10T15:48:29;20.1;61.4
78536;SHT31;67829;51.968;5.684;2023-05-10T15:50:57;20.4;59.6
78536;SHT31;67829;51.968;5.684;2023-05-10T15:53:26;20.6;58.2
78536;SHT31;67829;51.968;5.684;2023-05-10T15:55:55;20.7;57.7
78536;SHT31;67829;51.968;5.684;2023-05-10T15:58:23;20.8;56.2
78536;SHT31;67829;51.968;5.684;2023-05-10T16:00:52;20.9;55.5
78536;SHT31;67829;51.968;5.684;2023-05-10T16:03:21;20.9;55.8
78536;SHT31;67829;51.968;5.684;2023-05-10T16:05:50;20.9;55.5
78536;SHT31;67829;51.968;5.684;2023-05-10T16:08:21;20.8;56.3
78536;SHT31;67829;51.968;5.684;2023-05-10T16:10:50;20.7;57.9
78536;SHT31;67829;51.968;5.684;2023-05-10T16:13:20;20.7;58.2
78536;SHT31;67829;51.968;5.684;2023-05-10T16:15:49;20.6;57.6
78536;SHT31;67829;51.968;5.684;2023-05-10T16:18:20;20.6;58.4
78536;SHT31;67829;51.968;5.684;2023-05-10T16:20:48;20.5;57.2
78536;SHT31;67829;51.968;5.684;2023-05-10T16:23:17;20.5;56.7
78536;SHT31;67829;51.968;5.684;2023-05-10T16:25:46;20.5;56.5